createdAt,value
2017-09-17T00:01:53.502Z,25.47
2017-09-17T00:04:21.651Z,25.37
2017-09-17T00:06:49.109Z,26.50
2017-09-17T00:09:17.599Z,25.67
2017-09-17T00:11:45.242Z,27.37
2017-09-17T00:14:12.707Z,27.43
2017-09-17T00:16:40.566Z,27.50
2017-09-17T00:19:08.053Z,27.53
2017-09-17T00:21:35.510Z,27.90
2017-09-17T00:24:02.965Z,27.20
2017-09-17T00:26:30.467Z,26.73
2017-09-17T00:28:57.922Z,26.90
2017-09-17T00:31:25.373Z,27.10
2017-09-17T00:33:52.866Z,26.33
2017-09-17T00:36:20.322Z,27.13
2017-09-17T00:38:47.774Z,24.97
2017-09-17T00:41:15.380Z,28.13
2017-09-17T00:43:42.838Z,27.57
2017-09-17T00:46:10.294Z,28.17
2017-09-17T00:48:37.784Z,24.33
2017-09-17T00:51:05.234Z,27.07
2017-09-17T00:53:32.694Z,27.40
2017-09-17T00:56:00.471Z,27.20
2017-09-17T00:58:28.325Z,26.23
2017-09-17T01:00:55.788Z,23.90
2017-09-17T01:03:23.533Z,25.00
2017-09-17T01:05:50.994Z,23.43
2017-09-17T01:08:18.451Z,23.90
2017-09-17T01:10:45.934Z,22.60
2017-09-17T01:13:13.789Z,23.00
2017-09-17T01:15:41.642Z,22.43
2017-09-17T01:18:09.394Z,22.73
2017-09-17T01:20:36.850Z,21.77
2017-09-17T01:23:04.302Z,22.80
2017-09-17T01:25:31.775Z,21.83
2017-09-17T01:27:59.235Z,21.60
2017-09-17T01:30:26.695Z,22.37
2017-09-17T01:32:54.426Z,21.60
2017-09-17T01:35:21.889Z,21.70
2017-09-17T01:37:49.353Z,22.63
2017-09-17T01:40:16.826Z,22.03
2017-09-17T01:42:44.678Z,21.27
2017-09-17T01:45:12.130Z,19.77
2017-09-17T01:47:39.587Z,21.50
2017-09-17T01:50:07.045Z,21.33
2017-09-17T01:52:34.703Z,20.80
2017-09-17T01:55:02.155Z,20.77
2017-09-17T01:57:29.610Z,19.33
2017-09-17T01:59:57.174Z,19.70
2017-09-17T02:02:25.021Z,19.70
2017-09-17T02:04:52.486Z,18.97
2017-09-17T02:07:20.066Z,19.30
2017-09-17T02:09:47.918Z,18.37
2017-09-17T02:12:15.771Z,18.23
2017-09-17T02:14:43.727Z,17.90
2017-09-17T02:17:11.191Z,18.67
2017-09-17T02:19:38.649Z,20.40
2017-09-17T02:22:06.115Z,18.60
2017-09-17T02:24:33.974Z,19.40
2017-09-17T02:27:01.426Z,18.40
2017-09-17T02:29:28.907Z,18.03
2017-09-17T02:31:56.366Z,19.47
2017-09-17T02:34:23.822Z,20.23
2017-09-17T02:36:51.542Z,19.73
2017-09-17T02:39:18.993Z,20.63
2017-09-17T02:41:46.454Z,20.30
2017-09-17T02:44:14.029Z,20.43
2017-09-17T02:46:41.878Z,19.80
2017-09-17T02:49:09.334Z,20.63
2017-09-17T02:51:37.303Z,19.57
2017-09-17T02:54:04.766Z,19.83
2017-09-17T02:56:32.226Z,18.63
2017-09-17T02:59:00.107Z,20.50
2017-09-17T03:01:27.566Z,18.30
2017-09-17T03:03:55.027Z,19.40
2017-09-17T03:06:22.532Z,19.97
2017-09-17T03:08:49.983Z,19.17
2017-09-17T03:11:17.446Z,18.80
2017-09-17T03:13:45.219Z,19.13
2017-09-17T03:16:12.683Z,19.20
2017-09-17T03:18:40.143Z,19.47
2017-09-17T03:21:08.002Z,19.20
2017-09-17T03:23:35.466Z,19.87
2017-09-17T03:26:03.352Z,19.60
2017-09-17T03:28:30.827Z,19.30
2017-09-17T03:30:58.304Z,18.43
2017-09-17T03:33:25.801Z,18.40
2017-09-17T03:35:53.667Z,18.87
2017-09-17T03:38:21.665Z,18.93
2017-09-17T03:40:49.138Z,18.83
2017-09-17T03:43:16.609Z,20.10
2017-09-17T03:45:44.075Z,19.30
2017-09-17T03:48:11.835Z,19.47
2017-09-17T03:50:39.785Z,19.20
2017-09-17T03:53:07.271Z,19.90
2017-09-17T03:55:34.734Z,20.47
2017-09-17T03:58:02.589Z,20.30
2017-09-17T04:00:30.472Z,19.10
2017-09-17T04:02:57.947Z,17.93
2017-09-17T04:05:25.409Z,19.30
2017-09-17T04:07:53.224Z,20.27
2017-09-17T04:10:20.682Z,20.00
2017-09-17T04:12:48.144Z,18.70
2017-09-17T04:15:15.638Z,19.10
2017-09-17T04:17:44.095Z,17.60
2017-09-17T04:20:11.947Z,18.00
2017-09-17T04:22:39.841Z,17.63
2017-09-17T04:25:07.314Z,18.23
2017-09-17T04:27:34.770Z,17.40
2017-09-17T04:30:02.262Z,17.60
2017-09-17T04:32:29.723Z,16.20
2017-09-17T04:34:57.183Z,18.97
2017-09-17T04:37:24.662Z,16.97
2017-09-17T04:39:52.531Z,18.63
2017-09-17T04:42:19.987Z,17.40
2017-09-17T04:44:47.494Z,18.70
2017-09-17T04:47:14.951Z,17.30
2017-09-17T04:49:42.417Z,17.50
2017-09-17T04:52:09.927Z,17.47
2017-09-17T04:54:37.391Z,17.00
2017-09-17T04:57:05.702Z,16.57
2017-09-17T04:59:33.171Z,16.70
2017-09-17T05:02:01.033Z,16.50
2017-09-17T05:04:28.486Z,18.43
2017-09-17T05:06:55.963Z,17.43
2017-09-17T05:09:23.818Z,16.90
2017-09-17T05:11:51.694Z,17.30
2017-09-17T05:14:19.204Z,16.30
2017-09-17T05:16:46.662Z,17.27
2017-09-17T05:19:14.128Z,17.90
2017-09-17T05:21:41.798Z,17.13
2017-09-17T05:24:09.251Z,17.20
2017-09-17T05:26:36.711Z,16.60
2017-09-17T05:29:04.199Z,17.27
2017-09-17T05:31:31.665Z,17.00
2017-09-17T05:33:59.127Z,18.93
2017-09-17T05:36:26.927Z,18.77
2017-09-17T05:38:54.392Z,18.70
2017-09-17T05:41:21.847Z,17.17
2017-09-17T05:43:49.325Z,18.50
2017-09-17T05:46:17.178Z,18.90
2017-09-17T05:48:45.035Z,17.50
2017-09-17T05:51:12.927Z,17.60
2017-09-17T05:53:40.390Z,18.23
2017-09-17T05:56:07.857Z,17.93
2017-09-17T05:58:35.368Z,17.97
2017-09-17T06:01:02.932Z,17.67
2017-09-17T06:03:30.787Z,18.50
2017-09-17T06:05:58.250Z,15.70
2017-09-17T06:08:26.412Z,16.90
2017-09-17T06:10:53.866Z,17.87
2017-09-17T06:13:21.734Z,17.60
2017-09-17T06:15:49.711Z,17.40
2017-09-17T06:18:17.567Z,21.60
2017-09-17T06:20:45.431Z,23.83
2017-09-17T06:23:12.927Z,21.57
2017-09-17T06:25:40.384Z,27.67
2017-09-17T06:28:07.844Z,27.33
2017-09-17T06:30:35.657Z,16.50
2017-09-17T06:33:03.125Z,21.53
2017-09-17T06:35:30.978Z,18.73
2017-09-17T06:37:58.456Z,21.60
2017-09-17T06:40:26.310Z,22.30
2017-09-17T06:42:54.175Z,15.60
2017-09-17T06:45:22.087Z,15.53
2017-09-17T06:47:49.563Z,16.77
2017-09-17T06:50:17.028Z,17.33
2017-09-17T06:52:44.631Z,16.73
2017-09-17T06:55:12.092Z,15.37
2017-09-17T06:57:39.558Z,18.77
2017-09-17T07:00:07.020Z,15.70
2017-09-17T07:02:34.493Z,15.07
2017-09-17T07:05:02.422Z,16.50
2017-09-17T07:07:29.902Z,16.30
2017-09-17T07:09:58.574Z,14.97
2017-09-17T07:12:26.056Z,14.57
2017-09-17T07:14:54.446Z,14.90
2017-09-17T07:17:21.910Z,15.13
2017-09-17T07:19:49.366Z,14.77
2017-09-17T07:22:16.863Z,16.67
2017-09-17T07:24:44.400Z,16.20
2017-09-17T07:27:12.254Z,15.90
2017-09-17T07:29:40.208Z,16.00
2017-09-17T07:32:07.675Z,14.93
2017-09-17T07:34:35.134Z,14.83
2017-09-17T07:37:02.991Z,14.13
2017-09-17T07:39:30.450Z,14.60
2017-09-17T07:41:59.121Z,14.70
2017-09-17T07:44:26.578Z,15.47
2017-09-17T07:46:54.045Z,15.00
2017-09-17T07:49:21.918Z,15.40
2017-09-17T07:51:49.775Z,13.17
2017-09-17T07:54:17.644Z,13.27
2017-09-17T07:56:45.535Z,18.83
2017-09-17T07:59:12.998Z,13.33
2017-09-17T08:01:40.470Z,12.40
2017-09-17T08:04:07.943Z,13.07
2017-09-17T08:06:35.411Z,12.87
2017-09-17T08:09:02.881Z,13.00
2017-09-17T08:11:31.031Z,12.80
2017-09-17T08:13:58.531Z,12.60
2017-09-17T08:16:25.986Z,13.90
2017-09-17T08:18:53.487Z,12.83
2017-09-17T08:21:20.946Z,12.43
2017-09-17T08:23:48.410Z,12.03
2017-09-17T08:26:16.387Z,12.20
2017-09-17T08:28:43.846Z,11.47
2017-09-17T08:31:11.353Z,11.70
2017-09-17T08:33:38.866Z,11.30
2017-09-17T08:36:06.319Z,12.20
2017-09-17T08:38:34.174Z,10.30
2017-09-17T08:41:01.654Z,11.37
2017-09-17T08:43:29.514Z,11.10
2017-09-17T08:45:57.370Z,11.33
2017-09-17T08:48:25.627Z,11.77
2017-09-17T08:50:53.085Z,11.97
2017-09-17T08:53:20.658Z,12.23
2017-09-17T08:55:48.512Z,11.40
2017-09-17T08:58:15.971Z,10.00
2017-09-17T09:00:43.719Z,9.90
2017-09-17T09:03:11.179Z,9.40
2017-09-17T09:05:38.639Z,9.50
2017-09-17T09:08:06.148Z,8.97
2017-09-17T09:10:33.627Z,9.17
2017-09-17T09:13:01.095Z,8.80
2017-09-17T09:15:28.584Z,9.40
2017-09-17T09:17:56.579Z,11.00
2017-09-17T09:20:24.017Z,9.23
2017-09-17T09:22:51.485Z,17.93
2017-09-17T09:25:18.948Z,9.63
2017-09-17T09:27:46.444Z,9.53
2017-09-17T09:30:13.898Z,8.80
2017-09-17T09:32:41.355Z,9.97
2017-09-17T09:35:09.531Z,8.90
2017-09-17T09:37:36.990Z,9.03
2017-09-17T09:40:04.442Z,8.87
2017-09-17T09:42:31.930Z,9.97
2017-09-17T09:44:59.384Z,9.80
2017-09-17T09:47:26.844Z,9.20
2017-09-17T09:49:54.427Z,9.47
2017-09-17T09:52:21.898Z,10.53
2017-09-17T09:54:49.350Z,7.47
2017-09-17T09:57:17.546Z,6.83
2017-09-17T09:59:44.998Z,7.17
2017-09-17T10:02:12.461Z,7.03
2017-09-17T10:04:39.911Z,7.73
2017-09-17T10:07:07.365Z,6.43
2017-09-17T10:09:34.852Z,6.37
2017-09-17T10:12:02.699Z,7.10
2017-09-17T10:14:30.547Z,6.10
2017-09-17T10:16:58.292Z,7.40
2017-09-17T10:19:25.918Z,6.13
2017-09-17T10:21:53.375Z,6.00
2017-09-17T10:24:21.186Z,5.80
2017-09-17T10:26:48.649Z,5.93
2017-09-17T10:29:16.098Z,5.50
2017-09-17T10:31:47.319Z,6.40
2017-09-17T10:34:14.783Z,5.90
2017-09-17T10:36:42.468Z,6.73
2017-09-17T10:39:10.015Z,6.17
2017-09-17T10:41:37.470Z,5.63
2017-09-17T10:44:05.340Z,4.93
2017-09-17T10:46:32.798Z,5.63
2017-09-17T10:49:00.659Z,5.80
2017-09-17T10:51:28.140Z,5.93
2017-09-17T10:53:55.988Z,5.00
2017-09-17T10:56:23.436Z,4.97
2017-09-17T10:58:51.599Z,5.67
2017-09-17T11:01:19.050Z,5.30
2017-09-17T11:03:46.520Z,5.90
2017-09-17T11:06:13.968Z,4.90
2017-09-17T11:08:41.437Z,5.70
2017-09-17T11:11:08.886Z,5.57
2017-09-17T11:13:36.345Z,5.43
2017-09-17T11:16:03.803Z,5.70
2017-09-17T11:18:31.271Z,6.13
2017-09-17T11:20:59.998Z,5.83
2017-09-17T11:23:27.452Z,5.77
2017-09-17T11:25:54.940Z,6.43
2017-09-17T11:28:22.798Z,5.83
2017-09-17T11:30:50.267Z,5.80
2017-09-17T11:33:17.758Z,10.17
2017-09-17T11:35:45.217Z,9.00
2017-09-17T11:38:12.672Z,8.00
2017-09-17T11:40:40.159Z,7.93
2017-09-17T11:43:07.799Z,14.20
2017-09-17T11:45:35.259Z,6.03
2017-09-17T11:48:02.755Z,5.40
2017-09-17T11:50:30.215Z,6.10
2017-09-17T11:52:57.667Z,6.10
2017-09-17T11:55:25.321Z,5.40
2017-09-17T11:57:52.777Z,6.30
2017-09-17T12:00:20.240Z,5.07
2017-09-17T12:02:47.720Z,10.20
2017-09-17T12:05:15.566Z,10.20
2017-09-17T12:07:43.603Z,10.40
2017-09-17T12:10:11.056Z,5.70
2017-09-17T12:12:38.511Z,5.50
2017-09-17T12:15:06.364Z,6.23
2017-09-17T12:17:33.815Z,7.37
2017-09-17T12:20:01.267Z,6.10
2017-09-17T12:22:28.731Z,6.17
2017-09-17T12:24:56.198Z,6.27
2017-09-17T12:27:23.678Z,18.37
2017-09-17T12:29:51.243Z,9.27
2017-09-17T12:32:19.103Z,7.17
2017-09-17T12:34:46.561Z,8.57
2017-09-17T12:37:14.026Z,7.70
2017-09-17T12:39:41.879Z,7.40
2017-09-17T12:42:09.326Z,8.27
2017-09-17T12:44:37.084Z,6.20
2017-09-17T12:47:04.539Z,4.77
2017-09-17T12:49:32.023Z,4.60
2017-09-17T12:51:59.479Z,3.97
2017-09-17T12:54:26.941Z,4.03
2017-09-17T12:56:55.059Z,3.47
2017-09-17T12:59:22.502Z,3.10
2017-09-17T13:01:49.972Z,2.80
2017-09-17T13:04:17.423Z,3.50
2017-09-17T13:06:44.881Z,3.10
2017-09-17T13:09:12.379Z,5.50
2017-09-17T13:11:41.087Z,3.30
2017-09-17T13:14:08.551Z,2.80
2017-09-17T13:16:36.060Z,2.50
2017-09-17T13:19:03.515Z,2.67
2017-09-17T13:21:30.968Z,2.90
2017-09-17T13:23:58.446Z,2.90
2017-09-17T13:26:26.303Z,3.13
2017-09-17T13:28:54.152Z,3.03
2017-09-17T13:31:21.899Z,3.10
2017-09-17T13:33:49.355Z,3.50
2017-09-17T13:36:17.016Z,3.10
2017-09-17T13:38:44.489Z,2.80
2017-09-17T13:41:12.235Z,2.53
2017-09-17T13:43:39.695Z,3.10
2017-09-17T13:46:07.152Z,3.00
2017-09-17T13:48:34.608Z,3.22
2017-09-17T13:51:02.062Z,3.73
2017-09-17T13:53:29.695Z,3.30
2017-09-17T13:55:57.157Z,3.53
2017-09-17T13:58:24.812Z,3.40
2017-09-17T14:00:52.276Z,4.10
2017-09-17T14:03:20.667Z,3.33
2017-09-17T14:05:51.751Z,12.90
2017-09-17T14:08:31.025Z,15.30
2017-09-17T14:10:58.495Z,21.40
2017-09-17T14:13:25.959Z,9.37
2017-09-17T14:15:53.602Z,4.17
2017-09-17T14:18:21.059Z,5.37
2017-09-17T14:20:48.513Z,4.20
2017-09-17T14:23:16.079Z,4.07
2017-09-17T14:25:43.935Z,4.93
2017-09-17T14:28:11.444Z,11.40
2017-09-17T14:30:39.217Z,7.63
2017-09-17T14:33:06.674Z,7.83
2017-09-17T14:35:34.128Z,6.70
2017-09-17T14:38:01.633Z,6.33
2017-09-17T14:40:29.103Z,6.07
2017-09-17T14:42:56.960Z,6.87
2017-09-17T14:45:25.011Z,7.43
2017-09-17T14:47:52.462Z,7.43
2017-09-17T14:50:19.941Z,30.93
2017-09-17T14:52:47.831Z,26.43
2017-09-17T14:55:15.287Z,9.77
2017-09-17T14:57:42.742Z,6.00
2017-09-17T15:00:10.562Z,4.60
2017-09-17T15:02:38.015Z,4.70
2017-09-17T15:05:05.475Z,5.73
2017-09-17T15:07:32.947Z,5.27
2017-09-17T15:10:00.802Z,4.80
2017-09-17T15:12:28.376Z,4.00
2017-09-17T15:14:56.222Z,7.53
2017-09-17T15:17:23.675Z,7.03
2017-09-17T15:19:51.430Z,5.20
2017-09-17T15:22:18.879Z,5.20
2017-09-17T15:24:46.352Z,5.23
2017-09-17T15:27:14.305Z,4.90
2017-09-17T15:29:41.762Z,5.70
2017-09-17T15:32:09.223Z,4.80
2017-09-17T15:34:36.986Z,5.00
2017-09-17T15:37:04.457Z,5.20
2017-09-17T15:39:32.307Z,6.97
2017-09-17T15:41:59.878Z,4.90
2017-09-17T15:44:27.728Z,5.20
2017-09-17T15:46:55.178Z,5.00
2017-09-17T15:49:22.940Z,5.20
2017-09-17T15:51:50.392Z,6.20
2017-09-17T15:54:17.842Z,4.30
2017-09-17T15:56:45.334Z,4.13
2017-09-17T15:59:13.187Z,4.00
2017-09-17T16:01:41.068Z,3.60
2017-09-17T16:04:09.028Z,3.43
2017-09-17T16:06:36.870Z,4.30
2017-09-17T16:09:04.336Z,3.43
2017-09-17T16:11:32.000Z,3.20
2017-09-17T16:13:59.839Z,3.40
2017-09-17T16:16:27.303Z,3.10
2017-09-17T16:18:55.203Z,2.50
2017-09-17T16:21:23.047Z,2.90
2017-09-17T16:23:50.906Z,3.00
2017-09-17T16:26:18.404Z,12.43
2017-09-17T16:28:45.857Z,8.53
2017-09-17T16:31:13.314Z,3.90
2017-09-17T16:33:40.800Z,3.90
2017-09-17T16:36:08.255Z,3.40
2017-09-17T16:38:35.720Z,3.70
2017-09-17T16:41:03.215Z,3.30
2017-09-17T16:43:30.681Z,3.40
2017-09-17T16:45:58.137Z,2.70
2017-09-17T16:48:25.597Z,2.53
2017-09-17T16:50:53.511Z,3.20
2017-09-17T16:53:20.971Z,2.80
2017-09-17T16:55:48.440Z,3.30
2017-09-17T16:58:16.596Z,4.07
2017-09-17T17:00:44.064Z,4.90
2017-09-17T17:03:11.519Z,6.10
2017-09-17T17:05:39.391Z,5.23
2017-09-17T17:08:07.246Z,5.93
2017-09-17T17:10:34.996Z,6.00
2017-09-17T17:13:02.473Z,6.00
2017-09-17T17:15:30.327Z,5.83
2017-09-17T17:17:58.180Z,8.80
2017-09-17T17:20:25.631Z,7.80
2017-09-17T17:22:53.090Z,31.17
2017-09-17T17:25:20.850Z,33.43
2017-09-17T17:27:48.310Z,12.33
2017-09-17T17:30:15.776Z,14.67
2017-09-17T17:32:43.763Z,11.27
2017-09-17T17:35:12.071Z,10.43
2017-09-17T17:37:39.617Z,11.10
2017-09-17T17:40:07.206Z,11.93
2017-09-17T17:42:34.668Z,12.53
2017-09-17T17:45:02.138Z,11.77
2017-09-17T17:47:29.624Z,10.60
2017-09-17T17:49:57.087Z,9.23
2017-09-17T17:52:24.560Z,8.63
2017-09-17T17:54:52.055Z,15.90
2017-09-17T17:57:19.531Z,34.23
2017-09-17T17:59:47.379Z,31.77
2017-09-17T18:02:15.147Z,16.00
2017-09-17T18:04:42.601Z,9.10
2017-09-17T18:07:10.059Z,8.80
2017-09-17T18:09:37.516Z,8.87
2017-09-17T18:12:04.986Z,10.20
2017-09-17T18:14:32.863Z,11.07
2017-09-17T18:17:00.338Z,10.13
2017-09-17T18:19:27.878Z,9.97
2017-09-17T18:21:55.336Z,13.87
2017-09-17T18:24:22.802Z,18.67
2017-09-17T18:26:50.520Z,10.30
2017-09-17T18:29:17.986Z,8.70
2017-09-17T18:31:45.883Z,17.43
2017-09-17T18:34:13.371Z,15.03
2017-09-17T18:36:40.875Z,11.87
2017-09-17T18:39:08.723Z,12.13
2017-09-17T18:41:36.651Z,14.53
2017-09-17T18:44:04.256Z,11.63
2017-09-17T18:46:32.078Z,9.07
2017-09-17T18:48:59.832Z,10.50
2017-09-17T18:51:27.618Z,9.07
2017-09-17T18:53:55.563Z,38.33
2017-09-17T18:56:23.766Z,65.13
2017-09-17T18:58:51.717Z,21.30
2017-09-17T19:01:19.822Z,13.50
2017-09-17T19:03:48.581Z,9.27
2017-09-17T19:06:16.392Z,8.53
2017-09-17T19:08:44.359Z,8.67
2017-09-17T19:11:12.558Z,7.50
2017-09-17T19:13:40.402Z,8.40
2017-09-17T19:16:08.335Z,8.60
2017-09-17T19:18:36.297Z,8.40
2017-09-17T19:21:04.210Z,8.90
2017-09-17T19:23:32.405Z,7.60
2017-09-17T19:26:00.846Z,8.67
2017-09-17T19:28:28.588Z,8.37
2017-09-17T19:30:56.597Z,8.70
2017-09-17T19:33:24.516Z,8.67
2017-09-17T19:35:52.413Z,8.90
2017-09-17T19:38:20.555Z,8.90
2017-09-17T19:40:48.422Z,9.07
2017-09-17T19:43:16.206Z,8.23
2017-09-17T19:45:43.914Z,9.67
2017-09-17T19:48:12.153Z,8.50
2017-09-17T19:50:39.909Z,6.83
2017-09-17T19:53:07.628Z,8.00
2017-09-17T19:55:35.423Z,7.57
2017-09-17T19:58:03.086Z,9.20
2017-09-17T20:00:30.721Z,8.43
2017-09-17T20:02:58.359Z,8.70
2017-09-17T20:05:26.322Z,8.60
2017-09-17T20:07:53.914Z,8.97
2017-09-17T20:10:21.402Z,8.23
2017-09-17T20:12:48.948Z,9.40
2017-09-17T20:15:16.407Z,8.63
2017-09-17T20:17:43.864Z,8.90
2017-09-17T20:20:11.338Z,9.10
2017-09-17T20:22:38.836Z,10.43
2017-09-17T20:25:06.698Z,9.90
2017-09-17T20:27:34.572Z,14.20
2017-09-17T20:30:02.094Z,10.77
2017-09-17T20:32:29.600Z,12.30
2017-09-17T20:34:57.056Z,16.10
2017-09-17T20:37:24.534Z,14.93
2017-09-17T20:39:52.001Z,17.23
2017-09-17T20:42:19.682Z,16.10
2017-09-17T20:44:47.158Z,13.13
2017-09-17T20:47:14.620Z,14.00
2017-09-17T20:49:42.492Z,12.67
2017-09-17T20:52:10.391Z,12.20
2017-09-17T20:54:37.892Z,48.80
2017-09-17T20:57:05.367Z,99.27
2017-09-17T20:59:33.219Z,22.53
2017-09-17T21:02:01.076Z,16.20
2017-09-17T21:04:28.936Z,11.40
2017-09-17T21:06:56.416Z,10.40
2017-09-17T21:09:33.703Z,11.20
2017-09-17T21:12:01.560Z,11.20
2017-09-17T21:14:29.475Z,9.97
2017-09-17T21:16:56.971Z,10.77
2017-09-17T21:19:24.831Z,10.20
2017-09-17T21:21:52.525Z,10.73
2017-09-17T21:24:20.004Z,10.67
2017-09-17T21:26:47.465Z,14.70
2017-09-17T21:29:14.931Z,13.73
2017-09-17T21:31:43.411Z,12.27
2017-09-17T21:34:10.879Z,10.83
2017-09-17T21:36:38.331Z,8.90
2017-09-17T21:39:06.103Z,10.47
2017-09-17T21:41:33.554Z,9.97
2017-09-17T21:44:01.007Z,8.90
2017-09-17T21:46:28.590Z,9.40
2017-09-17T21:48:56.063Z,9.80
2017-09-17T21:51:23.518Z,10.07
2017-09-17T21:53:50.992Z,9.50
2017-09-17T21:56:18.451Z,9.63
2017-09-17T21:58:45.949Z,10.53
2017-09-17T22:01:13.407Z,11.87
2017-09-17T22:03:40.862Z,11.67
2017-09-17T22:06:08.716Z,10.50
2017-09-17T22:08:36.175Z,10.27
2017-09-17T22:11:03.630Z,10.67
2017-09-17T22:13:31.386Z,9.73
2017-09-17T22:15:58.846Z,9.83
2017-09-17T22:18:26.304Z,9.30
2017-09-17T22:20:53.776Z,8.27
2017-09-17T22:23:21.626Z,8.73
2017-09-17T22:25:49.088Z,8.17
2017-09-17T22:28:16.574Z,10.13
2017-09-17T22:30:44.022Z,8.63
2017-09-17T22:33:11.478Z,8.57
2017-09-17T22:35:39.487Z,8.80
2017-09-17T22:38:06.940Z,8.43
2017-09-17T22:40:34.383Z,8.47
2017-09-17T22:43:01.858Z,8.20
2017-09-17T22:45:29.307Z,7.77
2017-09-17T22:47:56.753Z,7.90
2017-09-17T22:50:24.238Z,7.87
2017-09-17T22:52:51.690Z,8.57
2017-09-17T22:55:19.142Z,7.07
2017-09-17T22:57:46.609Z,7.40
2017-09-17T23:00:14.070Z,7.80
2017-09-17T23:02:41.521Z,6.33
2017-09-17T23:05:09.161Z,6.60
2017-09-17T23:07:36.609Z,6.60
2017-09-17T23:10:04.061Z,7.70
2017-09-17T23:12:31.618Z,6.33
2017-09-17T23:14:59.063Z,6.20
2017-09-17T23:17:26.510Z,6.40
2017-09-17T23:19:54.082Z,7.10
2017-09-17T23:22:21.534Z,8.27
2017-09-17T23:24:49.254Z,8.00
2017-09-17T23:27:17.131Z,7.63
2017-09-17T23:29:44.565Z,8.20
2017-09-17T23:32:12.409Z,8.33
2017-09-17T23:34:39.877Z,7.97
2017-09-17T23:37:07.329Z,8.23
2017-09-17T23:39:34.769Z,8.10
2017-09-17T23:42:02.230Z,8.73
2017-09-17T23:44:29.678Z,8.63
2017-09-17T23:46:57.121Z,8.53
2017-09-17T23:49:24.603Z,8.67
2017-09-17T23:51:52.048Z,8.60
2017-09-17T23:54:19.504Z,9.30
2017-09-17T23:56:47.250Z,8.30
2017-09-17T23:59:14.706Z,8.90
